sensor_id;sensor_type;location;lat;lon;timestamp;P1;durP1;ratioP1;P2;durP2;ratioP2
18702;SDS011;9481;48.796;9.210;2022-12-10T00:01:28;27.87;;;15.80;;
18702;SDS011;9481;48.796;9.210;2022-12-10T00:03:57;26.63;;;16.00;;
18702;SDS011;9481;48.796;9.210;2022-12-10T00:06:25;25.00;;;15.57;;
18702;SDS011;9481;48.796;9.210;2022-12-10T00:08:53;24.57;;;15.70;;
18702;SDS011;9481;48.796;9.210;2022-12-10T00:11:20;26.07;;;15.87;;
18702;SDS011;9481;48.796;9.210;2022-12-10T00:13:48;26.87;;;15.87;;
18702;SDS011;9481;48.796;9.210;2022-12-10T00:16:16;28.80;;;16.13;;
18702;SDS011;9481;48.796;9.210;2022-12-10T00:18:45;27.53;;;16.27;;
18702;SDS011;9481;48.796;9.210;2022-12-10T00:21:13;28.63;;;16.00;;
18702;SDS011;9481;48.796;9.210;2022-12-10T00:23:42;25.30;;;16.30;;
18702;SDS011;9481;48.796;9.210;2022-12-10T00:26:10;25.37;;;16.03;;
18702;SDS011;9481;48.796;9.210;2022-12-10T00:28:41;28.47;;;15.80;;
18702;SDS011;9481;48.796;9.210;2022-12-10T00:31:09;32.27;;;16.23;;
18702;SDS011;9481;48.796;9.210;2022-12-10T00:33:42;27.43;;;17.10;;
18702;SDS011;9481;48.796;9.210;2022-12-10T00:36:10;26.70;;;15.97;;
18702;SDS011;9481;48.796;9.210;2022-12-10T00:38:42;24.17;;;15.43;;
18702;SDS011;9481;48.796;9.210;2022-12-10T00:41:09;29.03;;;16.43;;
18702;SDS011;9481;48.796;9.210;2022-12-10T00:43:37;25.83;;;16.17;;
18702;SDS011;9481;48.796;9.210;2022-12-10T00:46:03;24.90;;;15.60;;
18702;SDS011;9481;48.796;9.210;2022-12-10T00:48:29;26.60;;;15.30;;
18702;SDS011;9481;48.796;9.210;2022-12-10T00:50:56;23.60;;;15.23;;
18702;SDS011;9481;48.796;9.210;2022-12-10T00:53:29;24.27;;;14.73;;
18702;SDS011;9481;48.796;9.210;2022-12-10T00:55:56;25.63;;;15.43;;
18702;SDS011;9481;48.796;9.210;2022-12-10T00:58:23;25.90;;;16.23;;
18702;SDS011;9481;48.796;9.210;2022-12-10T01:00:52;24.03;;;15.23;;
18702;SDS011;9481;48.796;9.210;2022-12-10T01:03:18;29.93;;;16.43;;
18702;SDS011;9481;48.796;9.210;2022-12-10T01:05:44;27.07;;;15.57;;
18702;SDS011;9481;48.796;9.210;2022-12-10T01:08:10;25.23;;;15.20;;
18702;SDS011;9481;48.796;9.210;2022-12-10T01:10:35;24.23;;;14.87;;
18702;SDS011;9481;48.796;9.210;2022-12-10T01:13:01;23.27;;;14.53;;
18702;SDS011;9481;48.796;9.210;2022-12-10T01:15:28;25.77;;;15.70;;
18702;SDS011;9481;48.796;9.210;2022-12-10T01:17:53;24.20;;;15.70;;
18702;SDS011;9481;48.796;9.210;2022-12-10T01:20:19;26.97;;;15.03;;
18702;SDS011;9481;48.796;9.210;2022-12-10T01:22:45;22.97;;;14.67;;
18702;SDS011;9481;48.796;9.210;2022-12-10T01:25:10;23.37;;;15.43;;
18702;SDS011;9481;48.796;9.210;2022-12-10T01:27:36;24.47;;;15.33;;
18702;SDS011;9481;48.796;9.210;2022-12-10T01:30:02;24.63;;;15.37;;
18702;SDS011;9481;48.796;9.210;2022-12-10T01:32:28;25.37;;;16.33;;
18702;SDS011;9481;48.796;9.210;2022-12-10T01:34:53;22.33;;;14.97;;
18702;SDS011;9481;48.796;9.210;2022-12-10T01:37:19;24.67;;;14.80;;
18702;SDS011;9481;48.796;9.210;2022-12-10T01:39:45;24.53;;;14.83;;
18702;SDS011;9481;48.796;9.210;2022-12-10T01:42:11;23.43;;;14.73;;
18702;SDS011;9481;48.796;9.210;2022-12-10T01:47:07;23.23;;;15.50;;
18702;SDS011;9481;48.796;9.210;2022-12-10T01:49:35;23.77;;;15.63;;
18702;SDS011;9481;48.796;9.210;2022-12-10T01:52:06;26.17;;;14.60;;
18702;SDS011;9481;48.796;9.210;2022-12-10T01:54:39;23.07;;;14.73;;
18702;SDS011;9481;48.796;9.210;2022-12-10T01:57:09;24.40;;;15.57;;
18702;SDS011;9481;48.796;9.210;2022-12-10T01:59:52;23.70;;;15.20;;
18702;SDS011;9481;48.796;9.210;2022-12-10T02:05:33;22.00;;;14.93;;
18702;SDS011;9481;48.796;9.210;2022-12-10T02:13:41;24.20;;;15.27;;
18702;SDS011;9481;48.796;9.210;2022-12-10T02:16:18;23.73;;;15.17;;
18702;SDS011;9481;48.796;9.210;2022-12-10T02:22:04;28.80;;;16.10;;
18702;SDS011;9481;48.796;9.210;2022-12-10T02:24:33;26.07;;;15.53;;
18702;SDS011;9481;48.796;9.210;2022-12-10T02:27:06;24.17;;;15.20;;
18702;SDS011;9481;48.796;9.210;2022-12-10T02:29:43;23.33;;;14.90;;
18702;SDS011;9481;48.796;9.210;2022-12-10T02:32:14;24.53;;;14.90;;
18702;SDS011;9481;48.796;9.210;2022-12-10T02:34:49;23.53;;;15.00;;
18702;SDS011;9481;48.796;9.210;2022-12-10T02:37:37;25.27;;;15.47;;
18702;SDS011;9481;48.796;9.210;2022-12-10T02:40:15;23.10;;;14.90;;
18702;SDS011;9481;48.796;9.210;2022-12-10T02:42:51;24.63;;;15.83;;
18702;SDS011;9481;48.796;9.210;2022-12-10T02:45:18;26.60;;;15.57;;
18702;SDS011;9481;48.796;9.210;2022-12-10T02:47:47;23.10;;;15.07;;
18702;SDS011;9481;48.796;9.210;2022-12-10T02:50:14;23.40;;;14.73;;
18702;SDS011;9481;48.796;9.210;2022-12-10T02:52:44;21.73;;;14.30;;
18702;SDS011;9481;48.796;9.210;2022-12-10T02:55:12;24.00;;;15.30;;
18702;SDS011;9481;48.796;9.210;2022-12-10T02:57:45;21.17;;;13.90;;
18702;SDS011;9481;48.796;9.210;2022-12-10T03:00:29;24.77;;;15.17;;
18702;SDS011;9481;48.796;9.210;2022-12-10T03:03:14;22.60;;;15.10;;
18702;SDS011;9481;48.796;9.210;2022-12-10T03:05:59;24.80;;;14.23;;
18702;SDS011;9481;48.796;9.210;2022-12-10T03:11:16;25.47;;;15.23;;
18702;SDS011;9481;48.796;9.210;2022-12-10T03:16:42;24.40;;;14.90;;
18702;SDS011;9481;48.796;9.210;2022-12-10T03:19:33;24.57;;;14.17;;
18702;SDS011;9481;48.796;9.210;2022-12-10T03:22:06;23.30;;;14.57;;
18702;SDS011;9481;48.796;9.210;2022-12-10T03:24:36;24.80;;;14.90;;
18702;SDS011;9481;48.796;9.210;2022-12-10T03:27:05;23.83;;;15.03;;
18702;SDS011;9481;48.796;9.210;2022-12-10T03:29:38;26.40;;;14.57;;
18702;SDS011;9481;48.796;9.210;2022-12-10T03:32:13;22.83;;;14.20;;
18702;SDS011;9481;48.796;9.210;2022-12-10T03:34:41;25.50;;;15.20;;
18702;SDS011;9481;48.796;9.210;2022-12-10T03:37:09;26.67;;;15.07;;
18702;SDS011;9481;48.796;9.210;2022-12-10T03:39:37;22.37;;;13.87;;
18702;SDS011;9481;48.796;9.210;2022-12-10T03:42:04;22.40;;;14.67;;
18702;SDS011;9481;48.796;9.210;2022-12-10T03:44:32;22.83;;;14.57;;
18702;SDS011;9481;48.796;9.210;2022-12-10T03:47:03;23.77;;;14.57;;
18702;SDS011;9481;48.796;9.210;2022-12-10T03:49:33;23.23;;;14.03;;
18702;SDS011;9481;48.796;9.210;2022-12-10T03:51:59;21.50;;;13.90;;
18702;SDS011;9481;48.796;9.210;2022-12-10T03:54:25;22.50;;;13.50;;
18702;SDS011;9481;48.796;9.210;2022-12-10T03:56:51;21.93;;;14.17;;
18702;SDS011;9481;48.796;9.210;2022-12-10T03:59:16;24.13;;;14.30;;
18702;SDS011;9481;48.796;9.210;2022-12-10T04:01:42;19.37;;;13.20;;
18702;SDS011;9481;48.796;9.210;2022-12-10T04:04:08;22.83;;;13.57;;
18702;SDS011;9481;48.796;9.210;2022-12-10T04:06:36;21.67;;;14.17;;
18702;SDS011;9481;48.796;9.210;2022-12-10T04:09:04;22.30;;;13.83;;
18702;SDS011;9481;48.796;9.210;2022-12-10T04:11:30;23.43;;;13.90;;
18702;SDS011;9481;48.796;9.210;2022-12-10T04:13:55;22.63;;;14.07;;
18702;SDS011;9481;48.796;9.210;2022-12-10T04:16:40;22.57;;;14.03;;
18702;SDS011;9481;48.796;9.210;2022-12-10T04:19:07;23.93;;;13.90;;
18702;SDS011;9481;48.796;9.210;2022-12-10T04:21:37;23.73;;;14.33;;
18702;SDS011;9481;48.796;9.210;2022-12-10T04:24:25;21.60;;;13.57;;
18702;SDS011;9481;48.796;9.210;2022-12-10T04:27:16;24.03;;;14.77;;
18702;SDS011;9481;48.796;9.210;2022-12-10T04:29:52;22.40;;;13.73;;
18702;SDS011;9481;48.796;9.210;2022-12-10T04:32:20;21.63;;;13.93;;
18702;SDS011;9481;48.796;9.210;2022-12-10T04:34:47;21.73;;;14.40;;
18702;SDS011;9481;48.796;9.210;2022-12-10T04:37:13;21.07;;;13.57;;
18702;SDS011;9481;48.796;9.210;2022-12-10T04:39:40;22.23;;;14.70;;
18702;SDS011;9481;48.796;9.210;2022-12-10T04:42:06;19.97;;;13.03;;
18702;SDS011;9481;48.796;9.210;2022-12-10T04:44:33;19.13;;;13.00;;
18702;SDS011;9481;48.796;9.210;2022-12-10T04:46:59;24.43;;;14.27;;
18702;SDS011;9481;48.796;9.210;2022-12-10T04:49:25;20.33;;;13.80;;
18702;SDS011;9481;48.796;9.210;2022-12-10T04:51:51;24.03;;;14.97;;
18702;SDS011;9481;48.796;9.210;2022-12-10T04:54:18;21.10;;;13.87;;
18702;SDS011;9481;48.796;9.210;2022-12-10T04:56:44;20.53;;;13.63;;
18702;SDS011;9481;48.796;9.210;2022-12-10T04:59:10;24.03;;;14.17;;
18702;SDS011;9481;48.796;9.210;2022-12-10T05:01:37;21.70;;;14.57;;
18702;SDS011;9481;48.796;9.210;2022-12-10T05:04:05;23.07;;;14.47;;
18702;SDS011;9481;48.796;9.210;2022-12-10T05:06:33;22.30;;;13.87;;
18702;SDS011;9481;48.796;9.210;2022-12-10T05:08:59;20.40;;;13.10;;
18702;SDS011;9481;48.796;9.210;2022-12-10T05:11:26;20.70;;;12.93;;
18702;SDS011;9481;48.796;9.210;2022-12-10T05:13:55;22.50;;;15.10;;
18702;SDS011;9481;48.796;9.210;2022-12-10T05:16:22;21.57;;;14.20;;
18702;SDS011;9481;48.796;9.210;2022-12-10T05:18:50;22.97;;;13.20;;
18702;SDS011;9481;48.796;9.210;2022-12-10T05:21:18;19.40;;;13.53;;
18702;SDS011;9481;48.796;9.210;2022-12-10T05:23:47;22.50;;;13.07;;
18702;SDS011;9481;48.796;9.210;2022-12-10T05:26:22;20.83;;;13.10;;
18702;SDS011;9481;48.796;9.210;2022-12-10T05:28:50;21.77;;;13.57;;
18702;SDS011;9481;48.796;9.210;2022-12-10T05:33:50;20.43;;;13.30;;
18702;SDS011;9481;48.796;9.210;2022-12-10T05:36:18;21.83;;;13.00;;
18702;SDS011;9481;48.796;9.210;2022-12-10T05:38:47;20.43;;;13.27;;
18702;SDS011;9481;48.796;9.210;2022-12-10T05:41:14;21.13;;;13.20;;
18702;SDS011;9481;48.796;9.210;2022-12-10T05:43:46;21.87;;;13.37;;
18702;SDS011;9481;48.796;9.210;2022-12-10T05:46:14;19.03;;;12.33;;
18702;SDS011;9481;48.796;9.210;2022-12-10T05:48:43;19.97;;;13.47;;
18702;SDS011;9481;48.796;9.210;2022-12-10T05:51:10;19.13;;;13.13;;
18702;SDS011;9481;48.796;9.210;2022-12-10T05:53:39;19.27;;;12.90;;
18702;SDS011;9481;48.796;9.210;2022-12-10T05:56:07;20.60;;;12.90;;
18702;SDS011;9481;48.796;9.210;2022-12-10T05:58:36;20.70;;;13.23;;
18702;SDS011;9481;48.796;9.210;2022-12-10T06:01:07;22.57;;;13.90;;
18702;SDS011;9481;48.796;9.210;2022-12-10T06:03:48;20.00;;;13.53;;
18702;SDS011;9481;48.796;9.210;2022-12-10T06:06:21;21.40;;;14.03;;
18702;SDS011;9481;48.796;9.210;2022-12-10T06:08:55;20.43;;;13.23;;
18702;SDS011;9481;48.796;9.210;2022-12-10T06:11:22;23.50;;;13.67;;
18702;SDS011;9481;48.796;9.210;2022-12-10T06:13:49;20.23;;;13.53;;
18702;SDS011;9481;48.796;9.210;2022-12-10T06:16:14;20.53;;;14.17;;
18702;SDS011;9481;48.796;9.210;2022-12-10T06:18:40;21.50;;;13.57;;
18702;SDS011;9481;48.796;9.210;2022-12-10T06:21:07;19.93;;;13.47;;
18702;SDS011;9481;48.796;9.210;2022-12-10T06:23:39;19.73;;;13.30;;
18702;SDS011;9481;48.796;9.210;2022-12-10T06:26:11;23.90;;;13.97;;
18702;SDS011;9481;48.796;9.210;2022-12-10T06:28:43;20.67;;;13.80;;
18702;SDS011;9481;48.796;9.210;2022-12-10T06:31:10;21.50;;;13.57;;
18702;SDS011;9481;48.796;9.210;2022-12-10T06:33:37;23.37;;;14.43;;
18702;SDS011;9481;48.796;9.210;2022-12-10T06:36:03;23.53;;;14.00;;
18702;SDS011;9481;48.796;9.210;2022-12-10T06:38:31;23.10;;;14.50;;
18702;SDS011;9481;48.796;9.210;2022-12-10T06:40:58;21.93;;;14.20;;
18702;SDS011;9481;48.796;9.210;2022-12-10T06:43:23;23.97;;;15.03;;
18702;SDS011;9481;48.796;9.210;2022-12-10T06:45:49;22.60;;;14.27;;
18702;SDS011;9481;48.796;9.210;2022-12-10T06:48:15;21.73;;;13.77;;
18702;SDS011;9481;48.796;9.210;2022-12-10T06:50:40;20.80;;;14.00;;
18702;SDS011;9481;48.796;9.210;2022-12-10T06:53:06;23.80;;;14.40;;
18702;SDS011;9481;48.796;9.210;2022-12-10T06:55:32;23.17;;;14.30;;
18702;SDS011;9481;48.796;9.210;2022-12-10T06:57:57;23.87;;;13.77;;
18702;SDS011;9481;48.796;9.210;2022-12-10T07:00:23;23.03;;;14.73;;
18702;SDS011;9481;48.796;9.210;2022-12-10T07:02:49;23.07;;;14.00;;
18702;SDS011;9481;48.796;9.210;2022-12-10T07:05:15;23.10;;;14.57;;
18702;SDS011;9481;48.796;9.210;2022-12-10T07:07:41;23.70;;;13.80;;
18702;SDS011;9481;48.796;9.210;2022-12-10T07:10:08;19.67;;;13.40;;
18702;SDS011;9481;48.796;9.210;2022-12-10T07:12:34;20.77;;;12.80;;
18702;SDS011;9481;48.796;9.210;2022-12-10T07:14:59;21.67;;;14.70;;
18702;SDS011;9481;48.796;9.210;2022-12-10T07:17:25;23.40;;;14.50;;
18702;SDS011;9481;48.796;9.210;2022-12-10T07:19:51;21.67;;;13.97;;
18702;SDS011;9481;48.796;9.210;2022-12-10T07:22:16;20.57;;;14.47;;
18702;SDS011;9481;48.796;9.210;2022-12-10T07:24:42;21.37;;;14.57;;
18702;SDS011;9481;48.796;9.210;2022-12-10T07:27:08;21.80;;;14.43;;
18702;SDS011;9481;48.796;9.210;2022-12-10T07:29:34;25.83;;;14.63;;
18702;SDS011;9481;48.796;9.210;2022-12-10T07:32:00;20.73;;;14.20;;
18702;SDS011;9481;48.796;9.210;2022-12-10T07:34:26;20.30;;;13.77;;
18702;SDS011;9481;48.796;9.210;2022-12-10T07:36:52;21.87;;;14.23;;
18702;SDS011;9481;48.796;9.210;2022-12-10T07:39:17;20.57;;;13.57;;
18702;SDS011;9481;48.796;9.210;2022-12-10T07:41:44;22.53;;;14.20;;
18702;SDS011;9481;48.796;9.210;2022-12-10T07:44:15;21.60;;;13.50;;
18702;SDS011;9481;48.796;9.210;2022-12-10T07:46:41;19.67;;;13.60;;
18702;SDS011;9481;48.796;9.210;2022-12-10T07:49:06;20.00;;;14.20;;
18702;SDS011;9481;48.796;9.210;2022-12-10T07:51:33;22.70;;;13.40;;
18702;SDS011;9481;48.796;9.210;2022-12-10T07:53:58;20.37;;;13.23;;
18702;SDS011;9481;48.796;9.210;2022-12-10T07:56:24;21.90;;;13.90;;
18702;SDS011;9481;48.796;9.210;2022-12-10T07:58:50;17.70;;;12.80;;
18702;SDS011;9481;48.796;9.210;2022-12-10T08:01:22;21.83;;;13.93;;
18702;SDS011;9481;48.796;9.210;2022-12-10T08:03:51;19.43;;;13.83;;
18702;SDS011;9481;48.796;9.210;2022-12-10T08:06:21;23.23;;;14.63;;
18702;SDS011;9481;48.796;9.210;2022-12-10T08:08:48;20.67;;;13.97;;
18702;SDS011;9481;48.796;9.210;2022-12-10T08:11:15;22.87;;;12.90;;
18702;SDS011;9481;48.796;9.210;2022-12-10T08:13:43;20.83;;;13.47;;
18702;SDS011;9481;48.796;9.210;2022-12-10T08:16:14;21.13;;;13.70;;
18702;SDS011;9481;48.796;9.210;2022-12-10T08:18:43;21.83;;;13.63;;
18702;SDS011;9481;48.796;9.210;2022-12-10T08:21:11;21.03;;;13.33;;
18702;SDS011;9481;48.796;9.210;2022-12-10T08:23:40;21.37;;;13.57;;
18702;SDS011;9481;48.796;9.210;2022-12-10T08:26:08;24.70;;;14.10;;
18702;SDS011;9481;48.796;9.210;2022-12-10T08:28:37;23.17;;;14.73;;
18702;SDS011;9481;48.796;9.210;2022-12-10T08:31:03;19.80;;;13.63;;
18702;SDS011;9481;48.796;9.210;2022-12-10T08:33:32;22.17;;;14.70;;
18702;SDS011;9481;48.796;9.210;2022-12-10T08:35:59;22.27;;;13.57;;
18702;SDS011;9481;48.796;9.210;2022-12-10T08:38:27;19.70;;;13.43;;
18702;SDS011;9481;48.796;9.210;2022-12-10T08:40:54;22.23;;;14.27;;
18702;SDS011;9481;48.796;9.210;2022-12-10T08:43:19;23.53;;;15.07;;
18702;SDS011;9481;48.796;9.210;2022-12-10T08:45:45;21.30;;;14.33;;
18702;SDS011;9481;48.796;9.210;2022-12-10T08:48:11;26.17;;;14.83;;
18702;SDS011;9481;48.796;9.210;2022-12-10T08:50:37;24.33;;;14.00;;
18702;SDS011;9481;48.796;9.210;2022-12-10T08:53:04;21.30;;;14.53;;
18702;SDS011;9481;48.796;9.210;2022-12-10T08:55:29;20.87;;;14.83;;
18702;SDS011;9481;48.796;9.210;2022-12-10T08:57:56;24.27;;;15.13;;
18702;SDS011;9481;48.796;9.210;2022-12-10T09:00:23;23.13;;;14.07;;
18702;SDS011;9481;48.796;9.210;2022-12-10T09:02:50;22.07;;;14.87;;
18702;SDS011;9481;48.796;9.210;2022-12-10T09:05:16;21.97;;;14.53;;
18702;SDS011;9481;48.796;9.210;2022-12-10T09:07:42;22.47;;;14.60;;
18702;SDS011;9481;48.796;9.210;2022-12-10T09:10:09;22.60;;;14.33;;
18702;SDS011;9481;48.796;9.210;2022-12-10T09:12:39;21.10;;;14.87;;
18702;SDS011;9481;48.796;9.210;2022-12-10T09:15:05;23.73;;;14.50;;
18702;SDS011;9481;48.796;9.210;2022-12-10T09:17:34;21.47;;;14.27;;
18702;SDS011;9481;48.796;9.210;2022-12-10T09:20:01;22.73;;;15.30;;
18702;SDS011;9481;48.796;9.210;2022-12-10T09:22:28;21.43;;;13.83;;
18702;SDS011;9481;48.796;9.210;2022-12-10T09:24:54;22.07;;;14.70;;
18702;SDS011;9481;48.796;9.210;2022-12-10T09:27:19;22.57;;;14.73;;
18702;SDS011;9481;48.796;9.210;2022-12-10T09:29:45;21.60;;;14.57;;
18702;SDS011;9481;48.796;9.210;2022-12-10T09:32:11;22.83;;;15.00;;
18702;SDS011;9481;48.796;9.210;2022-12-10T09:34:37;22.03;;;15.40;;
18702;SDS011;9481;48.796;9.210;2022-12-10T09:37:02;22.50;;;14.87;;
18702;SDS011;9481;48.796;9.210;2022-12-10T09:39:28;23.00;;;14.70;;
18702;SDS011;9481;48.796;9.210;2022-12-10T09:48:03;23.40;;;14.97;;
18702;SDS011;9481;48.796;9.210;2022-12-10T09:51:24;21.70;;;14.73;;
18702;SDS011;9481;48.796;9.210;2022-12-10T09:53:55;22.43;;;14.00;;
18702;SDS011;9481;48.796;9.210;2022-12-10T09:56:29;21.53;;;14.50;;
18702;SDS011;9481;48.796;9.210;2022-12-10T09:59:00;23.07;;;15.53;;
18702;SDS011;9481;48.796;9.210;2022-12-10T10:01:40;22.50;;;15.07;;
18702;SDS011;9481;48.796;9.210;2022-12-10T10:04:08;20.23;;;14.30;;
18702;SDS011;9481;48.796;9.210;2022-12-10T10:06:34;22.70;;;14.50;;
18702;SDS011;9481;48.796;9.210;2022-12-10T10:09:01;22.80;;;15.10;;
18702;SDS011;9481;48.796;9.210;2022-12-10T10:11:29;22.77;;;14.50;;
18702;SDS011;9481;48.796;9.210;2022-12-10T10:13:59;21.67;;;14.40;;
18702;SDS011;9481;48.796;9.210;2022-12-10T10:16:33;21.73;;;14.40;;
18702;SDS011;9481;48.796;9.210;2022-12-10T10:22:04;21.97;;;14.53;;
18702;SDS011;9481;48.796;9.210;2022-12-10T10:24:34;20.53;;;14.00;;
18702;SDS011;9481;48.796;9.210;2022-12-10T10:27:26;21.67;;;14.20;;
18702;SDS011;9481;48.796;9.210;2022-12-10T10:29:54;20.90;;;13.50;;
18702;SDS011;9481;48.796;9.210;2022-12-10T10:32:25;20.70;;;14.53;;
18702;SDS011;9481;48.796;9.210;2022-12-10T10:35:27;22.20;;;14.60;;
18702;SDS011;9481;48.796;9.210;2022-12-10T10:38:39;21.77;;;14.87;;
18702;SDS011;9481;48.796;9.210;2022-12-10T10:40:55;19.53;;;13.37;;
18702;SDS011;9481;48.796;9.210;2022-12-10T10:43:32;21.00;;;14.60;;
18702;SDS011;9481;48.796;9.210;2022-12-10T10:46:22;21.37;;;14.77;;
18702;SDS011;9481;48.796;9.210;2022-12-10T10:48:49;19.10;;;13.93;;
18702;SDS011;9481;48.796;9.210;2022-12-10T10:51:18;22.27;;;14.60;;
18702;SDS011;9481;48.796;9.210;2022-12-10T10:53:49;20.33;;;14.87;;
18702;SDS011;9481;48.796;9.210;2022-12-10T10:56:23;22.67;;;14.57;;
18702;SDS011;9481;48.796;9.210;2022-12-10T11:01:46;20.63;;;13.70;;
18702;SDS011;9481;48.796;9.210;2022-12-10T11:04:24;19.43;;;13.77;;
18702;SDS011;9481;48.796;9.210;2022-12-10T11:06:55;21.03;;;13.63;;
18702;SDS011;9481;48.796;9.210;2022-12-10T11:09:30;22.00;;;14.53;;
18702;SDS011;9481;48.796;9.210;2022-12-10T11:11:59;20.27;;;13.23;;
18702;SDS011;9481;48.796;9.210;2022-12-10T11:14:33;20.43;;;14.13;;
18702;SDS011;9481;48.796;9.210;2022-12-10T11:19:43;21.20;;;14.33;;
18702;SDS011;9481;48.796;9.210;2022-12-10T11:22:40;19.87;;;13.73;;
18702;SDS011;9481;48.796;9.210;2022-12-10T11:25:20;23.13;;;14.73;;
18702;SDS011;9481;48.796;9.210;2022-12-10T11:37:44;22.20;;;13.57;;
18702;SDS011;9481;48.796;9.210;2022-12-10T11:52:35;20.00;;;13.07;;
18702;SDS011;9481;48.796;9.210;2022-12-10T11:55:54;21.27;;;13.73;;
18702;SDS011;9481;48.796;9.210;2022-12-10T12:00:59;19.47;;;13.53;;
18702;SDS011;9481;48.796;9.210;2022-12-10T12:09:14;20.03;;;12.77;;
18702;SDS011;9481;48.796;9.210;2022-12-10T12:12:29;20.20;;;12.93;;
18702;SDS011;9481;48.796;9.210;2022-12-10T12:17:50;23.03;;;13.27;;
18702;SDS011;9481;48.796;9.210;2022-12-10T12:20:25;19.33;;;13.00;;
18702;SDS011;9481;48.796;9.210;2022-12-10T12:23:17;20.00;;;13.13;;
18702;SDS011;9481;48.796;9.210;2022-12-10T12:25:55;19.43;;;13.03;;
18702;SDS011;9481;48.796;9.210;2022-12-10T12:28:32;16.70;;;11.87;;
18702;SDS011;9481;48.796;9.210;2022-12-10T12:31:09;16.50;;;11.27;;
18702;SDS011;9481;48.796;9.210;2022-12-10T12:36:23;18.77;;;12.47;;
18702;SDS011;9481;48.796;9.210;2022-12-10T12:39:02;18.53;;;12.70;;
18702;SDS011;9481;48.796;9.210;2022-12-10T12:50:30;19.30;;;12.30;;
18702;SDS011;9481;48.796;9.210;2022-12-10T12:53:14;18.50;;;11.43;;
18702;SDS011;9481;48.796;9.210;2022-12-10T12:55:55;16.73;;;11.33;;
18702;SDS011;9481;48.796;9.210;2022-12-10T12:58:33;16.40;;;11.20;;
18702;SDS011;9481;48.796;9.210;2022-12-10T13:01:33;15.43;;;10.57;;
18702;SDS011;9481;48.796;9.210;2022-12-10T13:04:09;16.73;;;11.10;;
18702;SDS011;9481;48.796;9.210;2022-12-10T13:06:37;15.13;;;10.33;;
18702;SDS011;9481;48.796;9.210;2022-12-10T13:11:43;16.37;;;10.37;;
18702;SDS011;9481;48.796;9.210;2022-12-10T13:14:16;17.53;;;11.30;;
18702;SDS011;9481;48.796;9.210;2022-12-10T13:17:08;21.40;;;11.73;;
18702;SDS011;9481;48.796;9.210;2022-12-10T13:20:24;15.57;;;10.60;;
18702;SDS011;9481;48.796;9.210;2022-12-10T13:31:07;14.00;;;10.17;;
18702;SDS011;9481;48.796;9.210;2022-12-10T13:34:23;14.27;;;9.33;;
18702;SDS011;9481;48.796;9.210;2022-12-10T13:44:50;16.10;;;10.30;;
18702;SDS011;9481;48.796;9.210;2022-12-10T13:47:32;16.83;;;11.03;;
18702;SDS011;9481;48.796;9.210;2022-12-10T13:50:03;17.07;;;10.83;;
18702;SDS011;9481;48.796;9.210;2022-12-10T13:55:55;20.83;;;13.13;;
18702;SDS011;9481;48.796;9.210;2022-12-10T14:07:11;19.33;;;13.00;;
18702;SDS011;9481;48.796;9.210;2022-12-10T14:09:42;20.47;;;13.17;;
18702;SDS011;9481;48.796;9.210;2022-12-10T14:12:18;20.27;;;13.20;;
18702;SDS011;9481;48.796;9.210;2022-12-10T14:15:06;18.87;;;12.83;;
18702;SDS011;9481;48.796;9.210;2022-12-10T14:17:40;20.17;;;13.43;;
18702;SDS011;9481;48.796;9.210;2022-12-10T14:20:14;20.70;;;13.17;;
18702;SDS011;9481;48.796;9.210;2022-12-10T14:22:49;22.63;;;13.67;;
18702;SDS011;9481;48.796;9.210;2022-12-10T14:25:21;21.53;;;14.17;;
18702;SDS011;9481;48.796;9.210;2022-12-10T14:27:48;19.90;;;13.67;;
18702;SDS011;9481;48.796;9.210;2022-12-10T14:32:49;21.07;;;14.00;;
18702;SDS011;9481;48.796;9.210;2022-12-10T14:35:21;22.10;;;14.13;;
18702;SDS011;9481;48.796;9.210;2022-12-10T14:37:53;20.27;;;13.30;;
18702;SDS011;9481;48.796;9.210;2022-12-10T14:43:00;22.70;;;13.77;;
18702;SDS011;9481;48.796;9.210;2022-12-10T14:45:51;18.80;;;12.83;;
18702;SDS011;9481;48.796;9.210;2022-12-10T14:48:23;19.37;;;12.53;;
18702;SDS011;9481;48.796;9.210;2022-12-10T14:50:50;19.13;;;13.00;;
18702;SDS011;9481;48.796;9.210;2022-12-10T14:53:18;20.00;;;12.67;;
18702;SDS011;9481;48.796;9.210;2022-12-10T14:55:50;20.90;;;13.10;;
18702;SDS011;9481;48.796;9.210;2022-12-10T14:58:29;20.90;;;12.30;;
18702;SDS011;9481;48.796;9.210;2022-12-10T15:01:04;19.83;;;13.33;;
18702;SDS011;9481;48.796;9.210;2022-12-10T15:03:32;20.57;;;12.97;;
18702;SDS011;9481;48.796;9.210;2022-12-10T15:06:08;19.00;;;12.50;;
18702;SDS011;9481;48.796;9.210;2022-12-10T15:08:34;18.03;;;12.00;;
18702;SDS011;9481;48.796;9.210;2022-12-10T15:11:01;20.07;;;12.73;;
18702;SDS011;9481;48.796;9.210;2022-12-10T15:13:39;17.60;;;11.57;;
18702;SDS011;9481;48.796;9.210;2022-12-10T15:16:20;18.60;;;12.67;;
18702;SDS011;9481;48.796;9.210;2022-12-10T15:18:52;20.17;;;12.83;;
18702;SDS011;9481;48.796;9.210;2022-12-10T15:21:20;17.83;;;11.77;;
18702;SDS011;9481;48.796;9.210;2022-12-10T15:23:49;16.63;;;11.47;;
18702;SDS011;9481;48.796;9.210;2022-12-10T15:26:34;17.90;;;11.13;;
18702;SDS011;9481;48.796;9.210;2022-12-10T15:31:49;19.40;;;12.73;;
18702;SDS011;9481;48.796;9.210;2022-12-10T15:34:20;19.77;;;12.37;;
18702;SDS011;9481;48.796;9.210;2022-12-10T15:36:52;17.50;;;12.37;;
18702;SDS011;9481;48.796;9.210;2022-12-10T15:39:28;17.17;;;12.30;;
18702;SDS011;9481;48.796;9.210;2022-12-10T15:42:07;15.80;;;11.47;;
18702;SDS011;9481;48.796;9.210;2022-12-10T15:44:37;18.80;;;11.70;;
18702;SDS011;9481;48.796;9.210;2022-12-10T15:49:45;17.10;;;11.20;;
18702;SDS011;9481;48.796;9.210;2022-12-10T15:52:14;17.70;;;11.07;;
18702;SDS011;9481;48.796;9.210;2022-12-10T15:54:44;17.20;;;11.00;;
18702;SDS011;9481;48.796;9.210;2022-12-10T15:59:45;18.93;;;11.53;;
18702;SDS011;9481;48.796;9.210;2022-12-10T16:07:56;17.23;;;11.73;;
18702;SDS011;9481;48.796;9.210;2022-12-10T16:10:27;17.13;;;11.13;;
18702;SDS011;9481;48.796;9.210;2022-12-10T16:13:00;18.30;;;11.77;;
18702;SDS011;9481;48.796;9.210;2022-12-10T16:15:33;19.50;;;11.50;;
18702;SDS011;9481;48.796;9.210;2022-12-10T16:18:08;17.40;;;11.07;;
18702;SDS011;9481;48.796;9.210;2022-12-10T16:20:36;16.97;;;11.20;;
18702;SDS011;9481;48.796;9.210;2022-12-10T16:23:02;16.77;;;11.13;;
18702;SDS011;9481;48.796;9.210;2022-12-10T16:25:31;16.93;;;12.07;;
18702;SDS011;9481;48.796;9.210;2022-12-10T16:27:59;17.87;;;11.00;;
18702;SDS011;9481;48.796;9.210;2022-12-10T16:30:33;16.97;;;11.40;;
18702;SDS011;9481;48.796;9.210;2022-12-10T16:33:07;19.13;;;12.20;;
18702;SDS011;9481;48.796;9.210;2022-12-10T16:35:33;17.37;;;10.97;;
18702;SDS011;9481;48.796;9.210;2022-12-10T16:37:59;18.23;;;11.33;;
18702;SDS011;9481;48.796;9.210;2022-12-10T16:40:25;14.67;;;10.67;;
18702;SDS011;9481;48.796;9.210;2022-12-10T16:42:53;17.33;;;10.97;;
18702;SDS011;9481;48.796;9.210;2022-12-10T16:47:52;16.33;;;10.77;;
18702;SDS011;9481;48.796;9.210;2022-12-10T16:50:18;18.30;;;10.60;;
18702;SDS011;9481;48.796;9.210;2022-12-10T16:52:45;15.23;;;10.50;;
18702;SDS011;9481;48.796;9.210;2022-12-10T16:55:13;16.43;;;11.27;;
18702;SDS011;9481;48.796;9.210;2022-12-10T16:57:43;16.47;;;10.57;;
18702;SDS011;9481;48.796;9.210;2022-12-10T17:00:11;15.20;;;10.57;;
18702;SDS011;9481;48.796;9.210;2022-12-10T17:02:41;17.67;;;10.87;;
18702;SDS011;9481;48.796;9.210;2022-12-10T17:08:03;16.80;;;10.90;;
18702;SDS011;9481;48.796;9.210;2022-12-10T17:10:29;15.30;;;10.50;;
18702;SDS011;9481;48.796;9.210;2022-12-10T17:13:14;17.90;;;11.50;;